createdAt,value
2022-10-07T00:00:23.899Z,1002.68
2022-10-07T00:01:24.018Z,1002.65
2022-10-07T00:02:23.935Z,1002.71
2022-10-07T00:03:23.867Z,1002.67
2022-10-07T00:04:23.867Z,1002.71
2022-10-07T00:05:23.850Z,1002.70
2022-10-07T00:06:23.859Z,1002.68
2022-10-07T00:07:23.838Z,1002.69
2022-10-07T00:08:23.826Z,1002.67
2022-10-07T00:09:23.802Z,1002.69
2022-10-07T00:10:24.801Z,1002.76
2022-10-07T00:11:23.808Z,1002.69
2022-10-07T00:12:23.789Z,1002.69
2022-10-07T00:13:23.786Z,1002.68
2022-10-07T00:14:23.758Z,1002.72
2022-10-07T00:15:23.784Z,1002.65
2022-10-07T00:16:23.759Z,1002.67
2022-10-07T00:17:23.743Z,1002.67
2022-10-07T00:18:23.723Z,1002.67
2022-10-07T00:19:23.717Z,1002.67
2022-10-07T00:20:23.726Z,1002.65
2022-10-07T00:21:23.701Z,1002.67
2022-10-07T00:22:23.714Z,1002.59
2022-10-07T00:23:23.675Z,1002.63
2022-10-07T00:24:23.668Z,1002.53
2022-10-07T00:25:23.658Z,1002.53
2022-10-07T00:26:23.650Z,1002.51
2022-10-07T00:27:23.668Z,1002.50
2022-10-07T00:28:23.663Z,1002.47
2022-10-07T00:29:23.614Z,1002.46
2022-10-07T00:30:23.601Z,1002.46
2022-10-07T00:31:23.646Z,1002.40
2022-10-07T00:32:23.602Z,1002.39
2022-10-07T00:33:23.570Z,1002.49
2022-10-07T00:34:23.577Z,1002.43
2022-10-07T00:35:23.558Z,1002.44
2022-10-07T00:36:23.551Z,1002.46
2022-10-07T00:37:23.542Z,1002.43
2022-10-07T00:38:23.533Z,1002.41
2022-10-07T00:39:23.545Z,1002.43
2022-10-07T00:40:23.514Z,1002.43
2022-10-07T00:41:23.498Z,1002.42
2022-10-07T00:42:23.500Z,1002.37
2022-10-07T00:43:23.500Z,1002.37
2022-10-07T00:44:23.495Z,1002.34
2022-10-07T00:45:23.466Z,1002.29
2022-10-07T00:46:23.580Z,1002.34
2022-10-07T00:47:23.451Z,1002.30
2022-10-07T00:48:23.439Z,1002.30
2022-10-07T00:49:23.424Z,1002.29
2022-10-07T00:50:23.436Z,1002.26
2022-10-07T00:51:23.409Z,1002.22
2022-10-07T00:52:23.394Z,1002.17
2022-10-07T00:53:23.392Z,1002.21
2022-10-07T00:54:23.374Z,1002.18
2022-10-07T00:55:23.387Z,1002.21
2022-10-07T00:56:23.358Z,1002.21
2022-10-07T00:57:23.352Z,1002.22
2022-10-07T00:58:23.332Z,1002.19
2022-10-07T00:59:23.319Z,1002.12
2022-10-07T01:00:23.330Z,1002.15
2022-10-07T01:01:23.335Z,1002.21
2022-10-07T01:02:23.346Z,1002.19
2022-10-07T01:03:24.301Z,1002.11
2022-10-07T01:04:23.288Z,1002.15
2022-10-07T01:05:23.294Z,1002.18
2022-10-07T01:06:23.273Z,1002.11
2022-10-07T01:07:23.260Z,1002.11
2022-10-07T01:08:23.224Z,1002.09
2022-10-07T01:09:23.223Z,1002.06
2022-10-07T01:10:23.214Z,1002.09
2022-10-07T01:11:23.201Z,1002.05
2022-10-07T01:12:23.212Z,1002.06
2022-10-07T01:13:23.180Z,1002.06
2022-10-07T01:14:23.195Z,1002.07
2022-10-07T01:15:23.164Z,1002.07
2022-10-07T01:16:23.205Z,1002.02
2022-10-07T01:17:23.145Z,1001.99
2022-10-07T01:18:23.137Z,1002.01
2022-10-07T01:19:23.185Z,1001.97
2022-10-07T01:20:23.122Z,1001.95
2022-10-07T01:21:23.104Z,1001.96
2022-10-07T01:22:23.090Z,1001.95
2022-10-07T01:23:23.088Z,1001.92
2022-10-07T01:24:23.081Z,1001.91
2022-10-07T01:25:23.082Z,1001.91
2022-10-07T01:26:23.062Z,1001.88
2022-10-07T01:27:23.053Z,1001.83
2022-10-07T01:28:23.123Z,1001.80
2022-10-07T01:29:23.041Z,1001.90
2022-10-07T01:30:23.026Z,1001.85
2022-10-07T01:31:23.073Z,1001.89
2022-10-07T01:32:23.017Z,1001.83
2022-10-07T01:33:22.991Z,1001.88
2022-10-07T01:34:22.986Z,1001.77
2022-10-07T01:35:22.965Z,1001.75
2022-10-07T01:36:22.958Z,1001.80
2022-10-07T01:37:22.968Z,1001.84
2022-10-07T01:38:22.934Z,1001.77
2022-10-07T01:39:22.928Z,1001.81
2022-10-07T01:40:22.930Z,1001.79
2022-10-07T01:41:22.920Z,1001.76
2022-10-07T01:42:22.904Z,1001.74
2022-10-07T01:43:22.914Z,1001.66
2022-10-07T01:44:22.883Z,1001.71
2022-10-07T01:45:22.859Z,1001.64
2022-10-07T01:46:22.903Z,1001.65
2022-10-07T01:47:22.866Z,1001.67
2022-10-07T01:48:22.836Z,1001.63
2022-10-07T01:49:22.862Z,1001.60
2022-10-07T01:50:22.831Z,1001.63
2022-10-07T01:51:22.823Z,1001.59
2022-10-07T01:52:22.831Z,1001.57
2022-10-07T01:53:22.795Z,1001.61
2022-10-07T01:54:22.791Z,1001.57
2022-10-07T01:55:22.778Z,1001.57
2022-10-07T01:56:22.766Z,1001.47
2022-10-07T01:57:22.828Z,1001.54
2022-10-07T01:58:22.748Z,1001.53
2022-10-07T01:59:22.743Z,1001.53
2022-10-07T02:00:22.728Z,1001.55
2022-10-07T02:01:22.812Z,1001.53
2022-10-07T02:02:22.711Z,1001.54
2022-10-07T02:03:22.776Z,1001.51
2022-10-07T02:04:22.698Z,1001.49
2022-10-07T02:05:22.685Z,1001.48
2022-10-07T02:06:22.669Z,1001.43
2022-10-07T02:07:22.675Z,1001.40
2022-10-07T02:08:22.664Z,1001.44
2022-10-07T02:09:22.643Z,1001.44
2022-10-07T02:10:22.634Z,1001.47
2022-10-07T02:11:22.619Z,1001.46
2022-10-07T02:12:22.614Z,1001.43
2022-10-07T02:13:22.618Z,1001.43
2022-10-07T02:14:22.601Z,1001.42
2022-10-07T02:15:22.609Z,1001.42
2022-10-07T02:16:22.798Z,1001.45
2022-10-07T02:17:22.592Z,1001.39
2022-10-07T02:18:22.581Z,1001.39
2022-10-07T02:19:22.551Z,1001.36
2022-10-07T02:20:22.542Z,1001.43
2022-10-07T02:21:22.537Z,1001.38
2022-10-07T02:22:22.553Z,1001.35
2022-10-07T02:23:22.518Z,1001.39
2022-10-07T02:24:22.527Z,1001.30
2022-10-07T02:25:22.508Z,1001.38
2022-10-07T02:26:54.389Z,1001.37
2022-10-07T02:27:22.491Z,1001.33
2022-10-07T02:28:22.492Z,1001.30
2022-10-07T02:29:22.486Z,1001.31
2022-10-07T02:30:22.446Z,1001.31
2022-10-07T02:31:22.521Z,1001.37
2022-10-07T02:32:22.424Z,1001.29
2022-10-07T02:33:22.419Z,1001.26
2022-10-07T02:34:22.404Z,1001.25
2022-10-07T02:35:22.384Z,1001.24
2022-10-07T02:36:22.418Z,1001.27
2022-10-07T02:37:22.378Z,1001.25
2022-10-07T02:38:22.373Z,1001.23
2022-10-07T02:39:22.361Z,1001.17
2022-10-07T02:40:22.344Z,1001.18
2022-10-07T02:41:22.342Z,1001.11
2022-10-07T02:42:22.339Z,1001.14
2022-10-07T02:43:22.320Z,1001.16
2022-10-07T02:44:22.300Z,1001.13
2022-10-07T02:45:26.692Z,1001.12
2022-10-07T02:46:23.344Z,1001.13
2022-10-07T02:47:22.299Z,1001.13
2022-10-07T02:48:22.279Z,1001.07
2022-10-07T02:49:22.259Z,1001.11
2022-10-07T02:50:22.253Z,1001.09
2022-10-07T02:51:22.241Z,1001.16
2022-10-07T02:52:22.233Z,1001.10
2022-10-07T02:53:22.242Z,1001.11
2022-10-07T02:54:22.221Z,1001.12
2022-10-07T02:55:22.218Z,1001.04
2022-10-07T02:56:22.185Z,1001.05
2022-10-07T02:57:22.179Z,1001.04
2022-10-07T02:58:22.170Z,1001.03
2022-10-07T02:59:22.170Z,1001.02
2022-10-07T03:00:22.172Z,1000.98
2022-10-07T03:01:22.162Z,1000.95
2022-10-07T03:02:22.127Z,1000.96
2022-10-07T03:03:22.162Z,1000.99
2022-10-07T03:04:22.159Z,1000.96
2022-10-07T03:05:22.104Z,1000.89
2022-10-07T03:06:22.093Z,1000.88
2022-10-07T03:07:22.096Z,1000.87
2022-10-07T03:08:22.071Z,1000.91
2022-10-07T03:09:22.054Z,1000.91
2022-10-07T03:10:22.051Z,1000.85
2022-10-07T03:11:22.038Z,1000.94
2022-10-07T03:12:22.052Z,1000.88
2022-10-07T03:13:22.019Z,1000.94
2022-10-07T03:14:22.009Z,1000.90
2022-10-07T03:15:22.009Z,1000.88
2022-10-07T03:16:22.065Z,1000.97
2022-10-07T03:17:21.985Z,1000.95
2022-10-07T03:18:21.991Z,1000.92
2022-10-07T03:19:21.962Z,1000.88
2022-10-07T03:20:21.957Z,1000.93
2022-10-07T03:21:21.952Z,1000.89
2022-10-07T03:22:21.927Z,1000.93
2022-10-07T03:23:21.909Z,1000.99
2022-10-07T03:24:21.920Z,1000.95
2022-10-07T03:25:21.908Z,1000.98
2022-10-07T03:26:21.909Z,1000.98
2022-10-07T03:27:21.892Z,1000.94
2022-10-07T03:28:21.968Z,1000.92
2022-10-07T03:29:21.866Z,1000.90
2022-10-07T03:30:24.550Z,1000.92
2022-10-07T03:31:23.052Z,1000.94
2022-10-07T03:32:21.835Z,1000.86
2022-10-07T03:33:21.849Z,1000.92
2022-10-07T03:34:21.813Z,1000.84
2022-10-07T03:35:21.819Z,1000.84
2022-10-07T03:36:21.805Z,1000.90
2022-10-07T03:37:21.819Z,1000.86
2022-10-07T03:38:21.784Z,1000.85
2022-10-07T03:39:21.767Z,1000.78
2022-10-07T03:40:21.770Z,1000.76
2022-10-07T03:41:21.760Z,1000.78
2022-10-07T03:42:21.758Z,1000.80
2022-10-07T03:43:21.739Z,1000.79
2022-10-07T03:44:21.725Z,1000.82
2022-10-07T03:45:21.721Z,1000.82
2022-10-07T03:46:21.737Z,1000.78
2022-10-07T03:47:21.724Z,1000.77
2022-10-07T03:48:21.679Z,1000.78
2022-10-07T03:49:21.672Z,1000.79
2022-10-07T03:50:21.678Z,1000.85
2022-10-07T03:51:21.650Z,1000.86
2022-10-07T03:52:21.641Z,1000.83
2022-10-07T03:53:21.632Z,1000.79
2022-10-07T03:54:21.628Z,1000.82
2022-10-07T03:55:21.623Z,1000.80
2022-10-07T03:56:22.631Z,1000.82
2022-10-07T03:57:21.600Z,1000.76
2022-10-07T03:58:21.579Z,1000.82
2022-10-07T03:59:21.578Z,1000.87
2022-10-07T04:00:21.580Z,1000.79
2022-10-07T04:01:21.591Z,1000.75
2022-10-07T04:02:21.552Z,1000.75
2022-10-07T04:03:21.589Z,1000.76
2022-10-07T04:04:21.537Z,1000.74
2022-10-07T04:05:21.536Z,1000.69
2022-10-07T04:06:21.514Z,1000.64
2022-10-07T04:07:21.510Z,1000.66
2022-10-07T04:08:21.492Z,1000.68
2022-10-07T04:09:21.489Z,1000.67
2022-10-07T04:10:21.502Z,1000.58
2022-10-07T04:11:21.506Z,1000.60
2022-10-07T04:12:21.451Z,1000.59
2022-10-07T04:13:21.454Z,1000.65
2022-10-07T04:14:21.454Z,1000.64
2022-10-07T04:15:21.424Z,1000.65
2022-10-07T04:16:21.443Z,1000.59
2022-10-07T04:17:21.403Z,1000.61
2022-10-07T04:18:21.419Z,1000.58
2022-10-07T04:19:21.383Z,1000.59
2022-10-07T04:20:22.393Z,1000.50
2022-10-07T04:21:21.365Z,1000.53
2022-10-07T04:22:21.365Z,1000.48
2022-10-07T04:23:21.387Z,1000.52
2022-10-07T04:24:21.377Z,1000.50
2022-10-07T04:25:21.334Z,1000.46
2022-10-07T04:26:21.325Z,1000.53
2022-10-07T04:27:46.773Z,1000.53
2022-10-07T04:28:23.352Z,1000.50
2022-10-07T04:29:21.320Z,1000.45
2022-10-07T04:30:21.276Z,1000.47
2022-10-07T04:31:21.331Z,1000.43
2022-10-07T04:32:21.256Z,1000.49
2022-10-07T04:33:21.247Z,1000.48
2022-10-07T04:34:21.293Z,1000.41
2022-10-07T04:35:21.221Z,1000.46
2022-10-07T04:36:21.219Z,1000.45
2022-10-07T04:37:21.221Z,1000.45
2022-10-07T04:38:24.202Z,1000.40
2022-10-07T04:39:29.920Z,1000.49
2022-10-07T04:40:21.189Z,1000.43
2022-10-07T04:41:21.168Z,1000.44
2022-10-07T04:42:21.146Z,1000.44
2022-10-07T04:43:21.165Z,1000.41
2022-10-07T04:44:21.170Z,1000.43
2022-10-07T04:45:21.120Z,1000.38
2022-10-07T04:46:21.172Z,1000.39
2022-10-07T04:47:21.096Z,1000.33
2022-10-07T04:48:21.091Z,1000.35
2022-10-07T04:49:21.097Z,1000.34
2022-10-07T04:50:21.078Z,1000.36
2022-10-07T04:51:21.078Z,1000.32
2022-10-07T04:52:21.055Z,1000.27
2022-10-07T04:53:21.054Z,1000.26
2022-10-07T04:54:21.039Z,1000.29
2022-10-07T04:55:21.026Z,1000.28
2022-10-07T04:56:21.073Z,1000.25
2022-10-07T04:57:21.015Z,1000.30
2022-10-07T04:58:20.984Z,1000.29
2022-10-07T04:59:23.615Z,1000.23
2022-10-07T05:00:21.974Z,1000.29
2022-10-07T05:01:21.017Z,1000.25
2022-10-07T05:02:21.032Z,1000.25
2022-10-07T05:03:20.942Z,1000.24
2022-10-07T05:04:20.922Z,1000.16
2022-10-07T05:05:20.917Z,1000.23
2022-10-07T05:06:20.947Z,1000.20
2022-10-07T05:07:20.913Z,1000.19
2022-10-07T05:08:20.893Z,1000.17
2022-10-07T05:09:20.882Z,1000.24
2022-10-07T05:10:20.875Z,1000.24
2022-10-07T05:11:20.862Z,1000.25
2022-10-07T05:12:20.877Z,1000.19
2022-10-07T05:13:20.870Z,1000.20
2022-10-07T05:14:20.832Z,1000.21
2022-10-07T05:15:20.825Z,1000.22
2022-10-07T05:16:20.870Z,1000.21
2022-10-07T05:17:20.801Z,1000.22
2022-10-07T05:18:20.837Z,1000.25
2022-10-07T05:19:20.803Z,1000.13
2022-10-07T05:20:20.792Z,1000.15
2022-10-07T05:21:20.760Z,1000.21
2022-10-07T05:22:20.752Z,1000.18
2022-10-07T05:23:23.302Z,1000.23
2022-10-07T05:24:21.755Z,1000.18
2022-10-07T05:25:20.724Z,1000.16
2022-10-07T05:26:20.724Z,1000.19
2022-10-07T05:27:20.706Z,1000.16
2022-10-07T05:28:20.714Z,1000.15
2022-10-07T05:29:20.705Z,1000.18
2022-10-07T05:30:20.682Z,1000.16
2022-10-07T05:31:20.735Z,1000.11
2022-10-07T05:32:20.679Z,1000.19
2022-10-07T05:33:20.647Z,1000.23
2022-10-07T05:34:20.631Z,1000.25
2022-10-07T05:35:20.635Z,1000.21
2022-10-07T05:36:20.660Z,1000.22
2022-10-07T05:37:20.621Z,1000.25
2022-10-07T05:38:20.597Z,1000.23
2022-10-07T05:39:20.589Z,1000.25
2022-10-07T05:40:20.584Z,1000.17
2022-10-07T05:41:20.580Z,1000.17
2022-10-07T05:42:20.572Z,1000.20
2022-10-07T05:43:20.547Z,1000.15
2022-10-07T05:44:20.535Z,1000.16
2022-10-07T05:45:20.531Z,1000.15
2022-10-07T05:46:20.612Z,1000.15
2022-10-07T05:47:20.513Z,1000.18
2022-10-07T05:48:20.502Z,1000.12
2022-10-07T05:49:20.512Z,1000.13
2022-10-07T05:50:20.487Z,1000.12
2022-10-07T05:51:20.476Z,1000.13
2022-10-07T05:52:20.464Z,1000.08
2022-10-07T05:53:20.458Z,1000.09
2022-10-07T05:54:20.462Z,1000.04
2022-10-07T05:55:20.432Z,1000.10
2022-10-07T05:56:20.424Z,1000.11
2022-10-07T05:57:21.404Z,1000.04
2022-10-07T05:58:20.407Z,1000.03
2022-10-07T05:59:20.414Z,1000.08
2022-10-07T06:00:20.413Z,1000.04
2022-10-07T06:01:20.360Z,1000.06
2022-10-07T06:02:20.542Z,1000.08
2022-10-07T06:03:20.387Z,1000.01
2022-10-07T06:04:20.362Z,1000.07
2022-10-07T06:05:20.330Z,1000.04
2022-10-07T06:06:20.320Z,1000.07
2022-10-07T06:07:22.721Z,1000.03
2022-10-07T06:08:21.302Z,1000.03
2022-10-07T06:09:20.318Z,1000.05
2022-10-07T06:10:20.282Z,1000.06
2022-10-07T06:11:20.279Z,1000.01
2022-10-07T06:12:20.253Z,1000.01
2022-10-07T06:13:20.257Z,999.92
2022-10-07T06:14:20.273Z,1000.00
2022-10-07T06:15:20.247Z,1000.00
2022-10-07T06:16:20.269Z,1000.00
2022-10-07T06:17:20.215Z,999.99
2022-10-07T06:18:20.209Z,1000.01
2022-10-07T06:19:20.201Z,999.98
2022-10-07T06:20:20.190Z,999.98
2022-10-07T06:21:21.189Z,999.92
2022-10-07T06:22:20.193Z,999.91
2022-10-07T06:23:20.149Z,1000.01
2022-10-07T06:24:20.161Z,999.94
2022-10-07T06:25:20.146Z,999.99
2022-10-07T06:26:20.127Z,1000.00
2022-10-07T06:27:20.129Z,1000.04
2022-10-07T06:28:20.195Z,1000.02
2022-10-07T06:29:20.103Z,999.95
2022-10-07T06:30:20.106Z,999.97
2022-10-07T06:31:20.184Z,1000.03
2022-10-07T06:32:20.069Z,1000.01
2022-10-07T06:33:20.083Z,999.98
2022-10-07T06:34:20.040Z,1000.02
2022-10-07T06:35:20.046Z,1000.07
2022-10-07T06:36:20.102Z,1000.01
2022-10-07T06:37:20.037Z,1000.05
2022-10-07T06:38:20.008Z,1000.08
2022-10-07T06:39:19.989Z,1000.06
2022-10-07T06:40:20.008Z,1000.10
2022-10-07T06:41:19.969Z,1000.10
2022-10-07T06:42:19.984Z,1000.14
2022-10-07T06:43:19.953Z,1000.09
2022-10-07T06:44:19.958Z,1000.03
2022-10-07T06:45:19.939Z,1000.02
2022-10-07T06:46:19.998Z,1000.05
2022-10-07T06:47:19.928Z,1000.03
2022-10-07T06:48:19.926Z,1000.00
2022-10-07T06:49:19.899Z,1000.00
2022-10-07T06:50:19.892Z,1000.00
2022-10-07T06:51:19.919Z,1000.00
2022-10-07T06:52:19.877Z,1000.03
2022-10-07T06:53:19.874Z,1000.03
2022-10-07T06:54:19.851Z,1000.03
2022-10-07T06:55:19.841Z,1000.01
2022-10-07T06:56:19.833Z,999.97
2022-10-07T06:57:44.166Z,1000.06
2022-10-07T06:58:22.525Z,1000.02
2022-10-07T06:59:19.814Z,1000.05
2022-10-07T07:00:19.791Z,1000.01
2022-10-07T07:01:19.854Z,1000.00
2022-10-07T07:02:19.845Z,1000.03
2022-10-07T07:03:19.788Z,1000.03
2022-10-07T07:04:19.775Z,1000.02
2022-10-07T07:05:20.744Z,1000.01
2022-10-07T07:06:19.733Z,1000.02
2022-10-07T07:07:19.742Z,1000.02
2022-10-07T07:08:19.710Z,1000.04
2022-10-07T07:09:19.717Z,1000.04
2022-10-07T07:10:19.704Z,1000.05
2022-10-07T07:11:19.686Z,1000.03
2022-10-07T07:12:19.673Z,999.97
2022-10-07T07:13:19.673Z,999.90
2022-10-07T07:14:19.655Z,999.97
2022-10-07T07:15:19.663Z,999.95
2022-10-07T07:16:19.721Z,999.97
2022-10-07T07:17:19.622Z,999.98
2022-10-07T07:18:19.612Z,999.95
2022-10-07T07:19:19.610Z,999.93
2022-10-07T07:20:19.592Z,999.95
2022-10-07T07:21:19.606Z,999.93
2022-10-07T07:22:19.595Z,999.94
2022-10-07T07:23:19.569Z,999.95
2022-10-07T07:24:19.549Z,999.99
2022-10-07T07:25:19.544Z,999.97
2022-10-07T07:26:19.534Z,999.94
2022-10-07T07:27:19.547Z,999.96
2022-10-07T07:28:19.552Z,999.97
2022-10-07T07:29:19.500Z,999.94
2022-10-07T07:30:19.489Z,999.92
2022-10-07T07:31:19.543Z,999.87
2022-10-07T07:32:19.510Z,999.89
2022-10-07T07:33:19.455Z,999.84
2022-10-07T07:34:19.446Z,999.86
2022-10-07T07:35:19.461Z,999.81
2022-10-07T07:36:19.421Z,999.82
2022-10-07T07:37:19.429Z,999.78
2022-10-07T07:38:23.345Z,999.78
2022-10-07T07:39:21.415Z,999.80
2022-10-07T07:40:19.425Z,999.85
2022-10-07T07:41:19.393Z,999.78
2022-10-07T07:42:19.375Z,999.76
2022-10-07T07:43:19.360Z,999.81
2022-10-07T07:44:19.356Z,999.71
2022-10-07T07:45:19.342Z,999.68
2022-10-07T07:46:19.412Z,999.77
2022-10-07T07:47:19.316Z,999.76
2022-10-07T07:48:19.316Z,999.77
2022-10-07T07:49:19.299Z,999.69
2022-10-07T07:50:19.283Z,999.70
2022-10-07T07:51:19.373Z,999.70
2022-10-07T07:52:19.264Z,999.70
2022-10-07T07:53:19.270Z,999.75
2022-10-07T07:54:19.270Z,999.75
2022-10-07T07:55:19.246Z,999.72
2022-10-07T07:56:19.226Z,999.64
2022-10-07T07:57:19.265Z,999.67
2022-10-07T07:58:19.232Z,999.65
2022-10-07T07:59:19.192Z,999.70
2022-10-07T08:00:19.185Z,999.64
2022-10-07T08:01:19.247Z,999.59
2022-10-07T08:02:19.236Z,999.57
2022-10-07T08:03:19.155Z,999.60
2022-10-07T08:04:19.168Z,999.65
2022-10-07T08:05:23.703Z,999.61
2022-10-07T08:06:20.129Z,999.59
2022-10-07T08:07:19.115Z,999.57
2022-10-07T08:08:19.118Z,999.52
2022-10-07T08:09:19.127Z,999.46
2022-10-07T08:10:19.091Z,999.50
2022-10-07T08:11:19.085Z,999.54
2022-10-07T08:12:19.091Z,999.45
2022-10-07T08:13:19.074Z,999.47
2022-10-07T08:14:19.060Z,999.49
2022-10-07T08:15:19.066Z,999.51
2022-10-07T08:16:19.040Z,999.45
2022-10-07T08:17:19.020Z,999.47
2022-10-07T08:18:19.014Z,999.49
2022-10-07T08:19:19.009Z,999.45
2022-10-07T08:20:19.011Z,999.46
2022-10-07T08:21:18.979Z,999.46
2022-10-07T08:22:18.971Z,999.44
2022-10-07T08:23:18.987Z,999.39
2022-10-07T08:24:18.958Z,999.41
2022-10-07T08:25:18.940Z,999.34
2022-10-07T08:26:18.936Z,999.37
2022-10-07T08:27:50.818Z,999.37
2022-10-07T08:28:18.978Z,999.27
2022-10-07T08:29:18.929Z,999.33
2022-10-07T08:30:18.911Z,999.31
2022-10-07T08:31:18.922Z,999.26
2022-10-07T08:32:18.893Z,999.27
2022-10-07T08:33:18.857Z,999.18
2022-10-07T08:34:19.856Z,999.10
2022-10-07T08:35:18.851Z,999.18
2022-10-07T08:36:18.830Z,999.15
2022-10-07T08:37:18.833Z,999.09
2022-10-07T08:38:18.827Z,999.14
2022-10-07T08:39:18.803Z,999.15
2022-10-07T08:40:18.788Z,999.03
2022-10-07T08:41:18.780Z,999.11
2022-10-07T08:42:18.787Z,999.06
2022-10-07T08:43:18.760Z,999.01
2022-10-07T08:44:18.759Z,998.98
2022-10-07T08:45:18.741Z,998.90
2022-10-07T08:46:18.775Z,998.91
2022-10-07T08:47:18.729Z,998.93
2022-10-07T08:48:18.706Z,998.89
2022-10-07T08:49:18.687Z,998.87
2022-10-07T08:50:20.086Z,998.84
2022-10-07T08:51:19.701Z,998.76
2022-10-07T08:52:18.692Z,998.88
2022-10-07T08:53:18.664Z,998.86
2022-10-07T08:54:18.680Z,998.88
2022-10-07T08:55:18.698Z,998.83
2022-10-07T08:56:18.653Z,998.75
2022-10-07T08:57:18.629Z,998.76
2022-10-07T08:58:18.620Z,998.77
2022-10-07T08:59:18.614Z,998.71
2022-10-07T09:00:18.609Z,998.71
2022-10-07T09:01:18.631Z,998.69
2022-10-07T09:02:18.610Z,998.66
2022-10-07T09:03:21.502Z,998.65
2022-10-07T09:04:20.550Z,998.64
2022-10-07T09:05:18.544Z,998.65
2022-10-07T09:06:18.576Z,998.59
2022-10-07T09:07:18.552Z,998.57
2022-10-07T09:08:18.507Z,998.54
2022-10-07T09:09:18.531Z,998.62
2022-10-07T09:10:18.514Z,998.53
2022-10-07T09:11:18.478Z,998.52
2022-10-07T09:12:18.465Z,998.47
2022-10-07T09:13:18.477Z,998.48
2022-10-07T09:14:18.471Z,998.47
2022-10-07T09:15:18.463Z,998.47
2022-10-07T09:16:18.521Z,998.44
2022-10-07T09:17:18.420Z,998.48
2022-10-07T09:18:18.418Z,998.41
2022-10-07T09:19:18.412Z,998.40
2022-10-07T09:20:18.400Z,998.34
2022-10-07T09:21:18.465Z,998.38
2022-10-07T09:22:18.377Z,998.34
2022-10-07T09:23:18.362Z,998.36
2022-10-07T09:24:18.353Z,998.36
2022-10-07T09:25:18.350Z,998.27
2022-10-07T09:26:18.334Z,998.32
2022-10-07T09:27:19.319Z,998.23
2022-10-07T09:28:18.373Z,998.20
2022-10-07T09:29:18.297Z,998.24
2022-10-07T09:30:18.285Z,998.25
2022-10-07T09:31:18.323Z,998.25
2022-10-07T09:32:18.275Z,998.18
2022-10-07T09:33:18.284Z,998.19
2022-10-07T09:34:18.267Z,998.19
2022-10-07T09:35:18.252Z,998.23
2022-10-07T09:36:18.253Z,998.16
2022-10-07T09:37:18.214Z,998.19
2022-10-07T09:38:18.220Z,998.17
2022-10-07T09:39:18.205Z,998.14
2022-10-07T09:40:18.199Z,998.13
2022-10-07T09:41:18.185Z,998.08
2022-10-07T09:42:18.169Z,998.05
2022-10-07T09:43:18.168Z,998.00
2022-10-07T09:44:18.155Z,998.04
2022-10-07T09:45:18.134Z,998.02
2022-10-07T09:46:18.173Z,998.02
2022-10-07T09:47:18.111Z,997.94
2022-10-07T09:48:18.120Z,997.95
2022-10-07T09:49:22.241Z,997.96
2022-10-07T09:50:19.140Z,997.92
2022-10-07T09:51:18.096Z,997.91
2022-10-07T09:52:18.077Z,997.85
2022-10-07T09:53:18.052Z,997.88
2022-10-07T09:54:18.050Z,997.91
2022-10-07T09:55:18.059Z,997.92
2022-10-07T09:56:18.042Z,997.87
2022-10-07T09:57:18.986Z,997.81
2022-10-07T09:58:19.016Z,997.84
2022-10-07T09:59:17.993Z,997.82
2022-10-07T10:00:17.984Z,997.79
2022-10-07T10:01:17.976Z,997.76
2022-10-07T10:02:18.075Z,997.79
2022-10-07T10:03:18.022Z,997.78
2022-10-07T10:04:17.958Z,997.73
2022-10-07T10:05:17.923Z,997.76
2022-10-07T10:06:17.917Z,997.70
2022-10-07T10:07:17.924Z,997.77
2022-10-07T10:08:17.905Z,997.74
2022-10-07T10:09:20.198Z,997.71
2022-10-07T10:10:18.978Z,997.78
2022-10-07T10:11:17.877Z,997.72
2022-10-07T10:12:17.881Z,997.75
2022-10-07T10:13:17.866Z,997.73
2022-10-07T10:14:17.869Z,997.72
2022-10-07T10:15:17.831Z,997.69
2022-10-07T10:16:17.918Z,997.61
2022-10-07T10:17:17.830Z,997.60
2022-10-07T10:18:17.811Z,997.58
2022-10-07T10:19:17.807Z,997.59
2022-10-07T10:20:17.787Z,997.58
2022-10-07T10:21:17.780Z,997.55
2022-10-07T10:22:17.766Z,997.50
2022-10-07T10:23:17.796Z,997.51
2022-10-07T10:24:17.751Z,997.44
2022-10-07T10:25:17.734Z,997.48
2022-10-07T10:26:17.720Z,997.43
2022-10-07T10:27:17.714Z,997.36
2022-10-07T10:28:17.764Z,997.37
2022-10-07T10:29:17.693Z,997.38
2022-10-07T10:30:17.691Z,997.33
2022-10-07T10:31:17.738Z,997.32
2022-10-07T10:32:17.665Z,997.32
2022-10-07T10:33:17.647Z,997.30
2022-10-07T10:34:17.670Z,997.29
2022-10-07T10:35:17.636Z,997.28
2022-10-07T10:36:17.628Z,997.28
2022-10-07T10:37:17.612Z,997.32
2022-10-07T10:38:17.631Z,997.26
2022-10-07T10:39:17.620Z,997.22
2022-10-07T10:40:19.098Z,997.20
2022-10-07T10:41:17.583Z,997.20
2022-10-07T10:42:17.592Z,997.15
2022-10-07T10:43:17.547Z,997.17
2022-10-07T10:44:17.542Z,997.15
2022-10-07T10:45:17.525Z,997.13
2022-10-07T10:46:17.576Z,997.10
2022-10-07T10:47:17.533Z,997.17
2022-10-07T10:48:17.495Z,997.08
2022-10-07T10:49:17.486Z,997.08
2022-10-07T10:50:17.553Z,997.09
2022-10-07T10:51:18.480Z,997.05
2022-10-07T10:52:17.495Z,997.02
2022-10-07T10:53:17.459Z,997.01
2022-10-07T10:54:17.436Z,997.00
2022-10-07T10:55:17.434Z,996.94
2022-10-07T10:56:17.434Z,996.92
2022-10-07T10:57:17.476Z,996.80
2022-10-07T10:58:17.389Z,996.85
2022-10-07T10:59:17.403Z,996.89
2022-10-07T11:00:17.444Z,996.80
2022-10-07T11:01:17.372Z,996.76
2022-10-07T11:02:17.422Z,996.78
2022-10-07T11:03:17.479Z,996.71
2022-10-07T11:04:17.357Z,996.69
2022-10-07T11:05:17.341Z,996.70
2022-10-07T11:06:17.317Z,996.67
2022-10-07T11:07:17.308Z,996.63
2022-10-07T11:08:17.303Z,996.63
2022-10-07T11:09:17.305Z,996.64
2022-10-07T11:10:17.390Z,996.57
2022-10-07T11:11:17.271Z,996.62
2022-10-07T11:12:17.249Z,996.65
2022-10-07T11:13:17.270Z,996.59
2022-10-07T11:14:17.252Z,996.55
2022-10-07T11:15:17.230Z,996.55
2022-10-07T11:16:17.268Z,996.53
2022-10-07T11:17:17.208Z,996.52
2022-10-07T11:18:17.216Z,996.47
2022-10-07T11:19:17.195Z,996.47
2022-10-07T11:20:17.268Z,996.45
2022-10-07T11:21:17.171Z,996.44
2022-10-07T11:22:17.152Z,996.46
2022-10-07T11:23:17.150Z,996.45
2022-10-07T11:24:17.148Z,996.42
2022-10-07T11:25:17.130Z,996.45
2022-10-07T11:26:17.124Z,996.41
2022-10-07T11:27:17.113Z,996.38
2022-10-07T11:28:17.168Z,996.36
2022-10-07T11:29:17.098Z,996.37
2022-10-07T11:30:17.139Z,996.33
2022-10-07T11:31:17.157Z,996.23
2022-10-07T11:32:17.062Z,996.25
2022-10-07T11:33:17.047Z,996.22
2022-10-07T11:34:17.052Z,996.18
2022-10-07T11:35:17.015Z,996.18
2022-10-07T11:36:17.150Z,996.17
2022-10-07T11:37:17.031Z,996.15
2022-10-07T11:38:17.005Z,996.11
2022-10-07T11:39:16.986Z,996.15
2022-10-07T11:40:17.035Z,996.09
2022-10-07T11:41:16.980Z,996.05
2022-10-07T11:42:16.991Z,996.07
2022-10-07T11:43:16.953Z,995.98
2022-10-07T11:44:16.943Z,996.03
2022-10-07T11:45:16.932Z,996.01
2022-10-07T11:46:16.999Z,995.98
2022-10-07T11:47:16.923Z,995.98
2022-10-07T11:48:16.904Z,995.98
2022-10-07T11:49:16.895Z,995.91
2022-10-07T11:50:16.967Z,995.87
2022-10-07T11:51:16.883Z,995.94
2022-10-07T11:52:16.864Z,995.82
2022-10-07T11:53:16.855Z,995.93
2022-10-07T11:54:16.846Z,995.85
2022-10-07T11:55:16.828Z,995.78
2022-10-07T11:56:16.849Z,995.78
2022-10-07T11:57:16.829Z,995.79
2022-10-07T11:58:16.816Z,995.80
2022-10-07T11:59:16.790Z,995.82
2022-10-07T12:00:16.798Z,995.75
2022-10-07T12:01:16.773Z,995.73
2022-10-07T12:02:16.791Z,995.74
2022-10-07T12:03:16.814Z,995.71
2022-10-07T12:04:16.730Z,995.63
2022-10-07T12:05:16.754Z,995.71
2022-10-07T12:06:16.729Z,995.57
2022-10-07T12:07:16.705Z,995.62
2022-10-07T12:08:16.691Z,995.59
2022-10-07T12:09:16.691Z,995.59
2022-10-07T12:10:16.698Z,995.51
2022-10-07T12:11:16.684Z,995.46
2022-10-07T12:12:16.663Z,995.41
2022-10-07T12:13:16.643Z,995.38
2022-10-07T12:14:16.639Z,995.37
2022-10-07T12:15:16.681Z,995.38